sensor_id;sensor_type;location;lat;lon;timestamp;temperature;humidity
58469;DHT22;44257;44.804;10.220;2023-08-24T00:01:41;26.50;91.30
58469;DHT22;44257;44.804;10.220;2023-08-24T00:04:06;26.40;91.00
58469;DHT22;44257;44.804;10.220;2023-08-24T00:06:34;26.50;91.00
58469;DHT22;44257;44.804;10.220;2023-08-24T00:09:00;26.50;91.20
58469;DHT22;44257;44.804;10.220;2023-08-24T00:11:26;26.50;90.50
58469;DHT22;44257;44.804;10.220;2023-08-24T00:13:51;26.50;90.70
58469;DHT22;44257;44.804;10.220;2023-08-24T00:16:18;26.50;91.00
58469;DHT22;44257;44.804;10.220;2023-08-24T00:18:45;26.60;90.80
58469;DHT22;44257;44.804;10.220;2023-08-24T00:21:13;26.60;90.70
58469;DHT22;44257;44.804;10.220;2023-08-24T00:23:39;26.60;90.50
58469;DHT22;44257;44.804;10.220;2023-08-24T00:26:04;26.60;90.70
58469;DHT22;44257;44.804;10.220;2023-08-24T00:28:30;26.50;90.90
58469;DHT22;44257;44.804;10.220;2023-08-24T00:30:56;26.50;91.10
58469;DHT22;44257;44.804;10.220;2023-08-24T00:33:22;26.40;91.00
58469;DHT22;44257;44.804;10.220;2023-08-24T00:35:48;26.40;91.20
58469;DHT22;44257;44.804;10.220;2023-08-24T00:38:14;26.30;91.30
58469;DHT22;44257;44.804;10.220;2023-08-24T00:40:42;26.30;91.40
58469;DHT22;44257;44.804;10.220;2023-08-24T00:43:09;26.30;91.40
58469;DHT22;44257;44.804;10.220;2023-08-24T00:45:35;26.30;91.50
58469;DHT22;44257;44.804;10.220;2023-08-24T00:48:02;26.30;91.50
58469;DHT22;44257;44.804;10.220;2023-08-24T00:50:28;26.30;91.90
58469;DHT22;44257;44.804;10.220;2023-08-24T00:52:54;26.30;91.90
58469;DHT22;44257;44.804;10.220;2023-08-24T00:55:20;26.20;91.90
58469;DHT22;44257;44.804;10.220;2023-08-24T00:57:48;26.20;91.60
58469;DHT22;44257;44.804;10.220;2023-08-24T01:00:15;26.20;91.70
58469;DHT22;44257;44.804;10.220;2023-08-24T01:02:41;26.10;91.80
58469;DHT22;44257;44.804;10.220;2023-08-24T01:05:07;26.10;92.20
58469;DHT22;44257;44.804;10.220;2023-08-24T01:07:39;26.10;92.00
58469;DHT22;44257;44.804;10.220;2023-08-24T01:10:09;26.00;92.10
58469;DHT22;44257;44.804;10.220;2023-08-24T01:13:02;26.00;92.10
58469;DHT22;44257;44.804;10.220;2023-08-24T01:15:51;25.90;92.00
58469;DHT22;44257;44.804;10.220;2023-08-24T01:18:20;25.90;92.20
58469;DHT22;44257;44.804;10.220;2023-08-24T01:20:49;25.80;92.30
58469;DHT22;44257;44.804;10.220;2023-08-24T01:23:36;25.70;92.10
58469;DHT22;44257;44.804;10.220;2023-08-24T01:26:19;25.60;92.30
58469;DHT22;44257;44.804;10.220;2023-08-24T01:28:46;25.60;92.60
58469;DHT22;44257;44.804;10.220;2023-08-24T01:31:16;25.50;92.70
58469;DHT22;44257;44.804;10.220;2023-08-24T01:33:43;25.40;92.80
58469;DHT22;44257;44.804;10.220;2023-08-24T01:36:11;25.40;92.90
58469;DHT22;44257;44.804;10.220;2023-08-24T01:38:38;25.40;93.20
58469;DHT22;44257;44.804;10.220;2023-08-24T01:41:25;25.40;93.40
58469;DHT22;44257;44.804;10.220;2023-08-24T01:43:58;25.40;93.60
58469;DHT22;44257;44.804;10.220;2023-08-24T01:46:25;25.30;93.40
58469;DHT22;44257;44.804;10.220;2023-08-24T01:48:52;25.30;93.60
58469;DHT22;44257;44.804;10.220;2023-08-24T01:51:19;25.20;93.70
58469;DHT22;44257;44.804;10.220;2023-08-24T01:53:45;25.20;93.40
58469;DHT22;44257;44.804;10.220;2023-08-24T01:56:13;25.20;93.70
58469;DHT22;44257;44.804;10.220;2023-08-24T01:58:39;25.20;94.00
58469;DHT22;44257;44.804;10.220;2023-08-24T02:01:05;25.20;93.90
58469;DHT22;44257;44.804;10.220;2023-08-24T02:03:32;25.10;94.00
58469;DHT22;44257;44.804;10.220;2023-08-24T02:05:58;25.10;94.00
58469;DHT22;44257;44.804;10.220;2023-08-24T02:08:24;25.10;94.10
58469;DHT22;44257;44.804;10.220;2023-08-24T02:10:51;25.10;94.10
58469;DHT22;44257;44.804;10.220;2023-08-24T02:13:17;25.10;94.10
58469;DHT22;44257;44.804;10.220;2023-08-24T02:15:43;25.00;94.20
58469;DHT22;44257;44.804;10.220;2023-08-24T02:18:08;24.90;94.40
58469;DHT22;44257;44.804;10.220;2023-08-24T02:20:35;24.90;94.50
58469;DHT22;44257;44.804;10.220;2023-08-24T02:23:03;24.90;94.60
58469;DHT22;44257;44.804;10.220;2023-08-24T02:25:29;24.80;94.60
58469;DHT22;44257;44.804;10.220;2023-08-24T02:27:55;24.70;94.70
58469;DHT22;44257;44.804;10.220;2023-08-24T02:30:21;24.60;94.70
58469;DHT22;44257;44.804;10.220;2023-08-24T02:32:47;24.60;94.80
58469;DHT22;44257;44.804;10.220;2023-08-24T02:35:15;24.60;95.00
58469;DHT22;44257;44.804;10.220;2023-08-24T02:37:41;24.60;95.30
58469;DHT22;44257;44.804;10.220;2023-08-24T02:40:07;24.60;95.40
58469;DHT22;44257;44.804;10.220;2023-08-24T02:42:35;24.50;95.50
58469;DHT22;44257;44.804;10.220;2023-08-24T02:45:01;24.50;95.70
58469;DHT22;44257;44.804;10.220;2023-08-24T02:47:28;24.40;96.00
58469;DHT22;44257;44.804;10.220;2023-08-24T02:49:53;24.40;96.30
58469;DHT22;44257;44.804;10.220;2023-08-24T02:52:19;24.30;96.40
58469;DHT22;44257;44.804;10.220;2023-08-24T02:54:45;24.30;96.60
58469;DHT22;44257;44.804;10.220;2023-08-24T02:57:11;24.20;97.10
58469;DHT22;44257;44.804;10.220;2023-08-24T02:59:37;24.10;97.60
58469;DHT22;44257;44.804;10.220;2023-08-24T03:02:02;24.10;98.00
58469;DHT22;44257;44.804;10.220;2023-08-24T03:04:30;24.00;98.20
58469;DHT22;44257;44.804;10.220;2023-08-24T03:06:56;23.90;98.40
58469;DHT22;44257;44.804;10.220;2023-08-24T03:09:22;23.90;98.60
58469;DHT22;44257;44.804;10.220;2023-08-24T03:11:48;23.80;98.60
58469;DHT22;44257;44.804;10.220;2023-08-24T03:14:14;23.70;98.90
58469;DHT22;44257;44.804;10.220;2023-08-24T03:16:40;23.70;98.90
58469;DHT22;44257;44.804;10.220;2023-08-24T03:19:05;23.70;99.00
58469;DHT22;44257;44.804;10.220;2023-08-24T03:21:32;23.70;99.10
58469;DHT22;44257;44.804;10.220;2023-08-24T03:23:59;23.70;99.10
58469;DHT22;44257;44.804;10.220;2023-08-24T03:26:25;23.70;99.30
58469;DHT22;44257;44.804;10.220;2023-08-24T03:28:53;23.80;99.40
58469;DHT22;44257;44.804;10.220;2023-08-24T03:31:19;23.70;99.40
58469;DHT22;44257;44.804;10.220;2023-08-24T03:33:45;23.70;99.40
58469;DHT22;44257;44.804;10.220;2023-08-24T03:36:12;23.80;99.40
58469;DHT22;44257;44.804;10.220;2023-08-24T03:38:38;23.70;99.50
58469;DHT22;44257;44.804;10.220;2023-08-24T03:41:04;23.70;99.50
58469;DHT22;44257;44.804;10.220;2023-08-24T03:43:32;23.70;99.70
58469;DHT22;44257;44.804;10.220;2023-08-24T03:45:59;23.60;99.80
58469;DHT22;44257;44.804;10.220;2023-08-24T03:48:25;23.60;99.90
58469;DHT22;44257;44.804;10.220;2023-08-24T03:50:54;23.50;99.90
58469;DHT22;44257;44.804;10.220;2023-08-24T03:53:21;23.50;99.90
58469;DHT22;44257;44.804;10.220;2023-08-24T03:55:48;23.40;99.90
58469;DHT22;44257;44.804;10.220;2023-08-24T03:58:18;23.40;99.90
58469;DHT22;44257;44.804;10.220;2023-08-24T04:00:44;23.30;99.90
58469;DHT22;44257;44.804;10.220;2023-08-24T04:03:11;23.30;99.90
58469;DHT22;44257;44.804;10.220;2023-08-24T04:05:37;23.30;99.90
58469;DHT22;44257;44.804;10.220;2023-08-24T04:08:04;23.20;99.90
58469;DHT22;44257;44.804;10.220;2023-08-24T04:10:30;23.20;99.90
58469;DHT22;44257;44.804;10.220;2023-08-24T04:12:57;23.20;99.90
58469;DHT22;44257;44.804;10.220;2023-08-24T04:15:23;23.20;99.90
58469;DHT22;44257;44.804;10.220;2023-08-24T04:17:49;23.20;99.90
58469;DHT22;44257;44.804;10.220;2023-08-24T04:20:16;23.20;99.90
58469;DHT22;44257;44.804;10.220;2023-08-24T04:22:42;23.10;99.90
58469;DHT22;44257;44.804;10.220;2023-08-24T04:25:08;23.10;99.90
58469;DHT22;44257;44.804;10.220;2023-08-24T04:27:34;23.10;99.90
58469;DHT22;44257;44.804;10.220;2023-08-24T04:30:00;23.00;99.90
58469;DHT22;44257;44.804;10.220;2023-08-24T04:32:27;23.00;99.90
58469;DHT22;44257;44.804;10.220;2023-08-24T04:34:53;22.90;99.90
58469;DHT22;44257;44.804;10.220;2023-08-24T04:37:19;22.90;99.90
58469;DHT22;44257;44.804;10.220;2023-08-24T04:39:46;23.00;99.90
58469;DHT22;44257;44.804;10.220;2023-08-24T04:42:12;23.00;99.90
58469;DHT22;44257;44.804;10.220;2023-08-24T04:44:38;23.00;99.90
58469;DHT22;44257;44.804;10.220;2023-08-24T04:47:04;23.00;99.90
58469;DHT22;44257;44.804;10.220;2023-08-24T04:49:30;23.00;99.90
58469;DHT22;44257;44.804;10.220;2023-08-24T04:51:56;23.00;99.90
58469;DHT22;44257;44.804;10.220;2023-08-24T04:54:22;23.00;99.90
58469;DHT22;44257;44.804;10.220;2023-08-24T04:56:47;23.10;99.90
58469;DHT22;44257;44.804;10.220;2023-08-24T04:59:13;23.20;99.90
58469;DHT22;44257;44.804;10.220;2023-08-24T05:01:39;23.20;99.90
58469;DHT22;44257;44.804;10.220;2023-08-24T05:04:05;23.30;99.90
58469;DHT22;44257;44.804;10.220;2023-08-24T05:06:31;23.40;99.90
58469;DHT22;44257;44.804;10.220;2023-08-24T05:08:57;23.50;99.90
58469;DHT22;44257;44.804;10.220;2023-08-24T05:11:24;23.50;99.90
58469;DHT22;44257;44.804;10.220;2023-08-24T05:13:50;23.60;99.90
58469;DHT22;44257;44.804;10.220;2023-08-24T05:16:16;23.70;99.90
58469;DHT22;44257;44.804;10.220;2023-08-24T05:18:42;23.80;99.90
58469;DHT22;44257;44.804;10.220;2023-08-24T05:21:07;23.90;99.90
58469;DHT22;44257;44.804;10.220;2023-08-24T05:23:34;24.00;99.90
58469;DHT22;44257;44.804;10.220;2023-08-24T05:26:01;24.10;99.90
58469;DHT22;44257;44.804;10.220;2023-08-24T05:28:29;24.30;99.90
58469;DHT22;44257;44.804;10.220;2023-08-24T05:30:55;24.40;99.90
58469;DHT22;44257;44.804;10.220;2023-08-24T05:33:22;24.50;99.90
58469;DHT22;44257;44.804;10.220;2023-08-24T05:35:49;24.70;99.90
58469;DHT22;44257;44.804;10.220;2023-08-24T05:38:15;24.80;99.90
58469;DHT22;44257;44.804;10.220;2023-08-24T05:40:48;24.80;99.90
58469;DHT22;44257;44.804;10.220;2023-08-24T05:43:14;25.00;99.90
58469;DHT22;44257;44.804;10.220;2023-08-24T05:45:40;25.10;99.90
58469;DHT22;44257;44.804;10.220;2023-08-24T05:48:09;25.30;99.90
58469;DHT22;44257;44.804;10.220;2023-08-24T05:50:35;25.60;99.90
58469;DHT22;44257;44.804;10.220;2023-08-24T05:53:03;25.90;99.90
58469;DHT22;44257;44.804;10.220;2023-08-24T05:55:29;26.40;99.10
58469;DHT22;44257;44.804;10.220;2023-08-24T05:57:55;26.70;98.80
58469;DHT22;44257;44.804;10.220;2023-08-24T06:00:21;27.10;97.50
58469;DHT22;44257;44.804;10.220;2023-08-24T06:02:48;27.50;97.20
58469;DHT22;44257;44.804;10.220;2023-08-24T06:05:14;27.80;96.30
58469;DHT22;44257;44.804;10.220;2023-08-24T06:07:39;28.20;96.10
58469;DHT22;44257;44.804;10.220;2023-08-24T06:10:06;28.40;95.00
58469;DHT22;44257;44.804;10.220;2023-08-24T06:12:32;28.80;94.40
58469;DHT22;44257;44.804;10.220;2023-08-24T06:14:57;29.20;94.30
58469;DHT22;44257;44.804;10.220;2023-08-24T06:17:23;29.40;93.40
58469;DHT22;44257;44.804;10.220;2023-08-24T06:19:49;29.70;93.30
58469;DHT22;44257;44.804;10.220;2023-08-24T06:22:15;30.00;93.00
58469;DHT22;44257;44.804;10.220;2023-08-24T06:24:40;30.20;92.60
58469;DHT22;44257;44.804;10.220;2023-08-24T06:27:06;30.30;91.50
58469;DHT22;44257;44.804;10.220;2023-08-24T06:29:32;30.30;90.80
58469;DHT22;44257;44.804;10.220;2023-08-24T06:31:58;30.20;90.30
58469;DHT22;44257;44.804;10.220;2023-08-24T06:34:24;30.10;90.30
58469;DHT22;44257;44.804;10.220;2023-08-24T06:36:50;29.90;90.60
58469;DHT22;44257;44.804;10.220;2023-08-24T06:39:16;29.90;91.30
58469;DHT22;44257;44.804;10.220;2023-08-24T06:41:42;29.70;90.60
58469;DHT22;44257;44.804;10.220;2023-08-24T06:44:08;29.60;90.50
58469;DHT22;44257;44.804;10.220;2023-08-24T06:46:34;29.50;90.80
58469;DHT22;44257;44.804;10.220;2023-08-24T06:49:00;29.50;92.10
58469;DHT22;44257;44.804;10.220;2023-08-24T06:51:26;29.60;91.40
58469;DHT22;44257;44.804;10.220;2023-08-24T06:53:52;29.60;91.20
58469;DHT22;44257;44.804;10.220;2023-08-24T06:56:18;29.60;91.10
58469;DHT22;44257;44.804;10.220;2023-08-24T06:58:45;29.60;90.60
58469;DHT22;44257;44.804;10.220;2023-08-24T07:01:11;29.60;89.60
58469;DHT22;44257;44.804;10.220;2023-08-24T07:03:37;29.50;89.10
58469;DHT22;44257;44.804;10.220;2023-08-24T07:06:08;29.30;89.40
58469;DHT22;44257;44.804;10.220;2023-08-24T07:08:34;29.20;89.90
58469;DHT22;44257;44.804;10.220;2023-08-24T07:11:01;29.10;90.40
58469;DHT22;44257;44.804;10.220;2023-08-24T07:13:27;29.10;90.60
58469;DHT22;44257;44.804;10.220;2023-08-24T07:15:53;29.10;90.70
58469;DHT22;44257;44.804;10.220;2023-08-24T07:18:21;29.20;90.50
58469;DHT22;44257;44.804;10.220;2023-08-24T07:20:47;29.20;90.50
58469;DHT22;44257;44.804;10.220;2023-08-24T07:23:13;29.20;90.90
58469;DHT22;44257;44.804;10.220;2023-08-24T07:25:39;29.30;91.00
58469;DHT22;44257;44.804;10.220;2023-08-24T07:28:04;29.40;91.10
58469;DHT22;44257;44.804;10.220;2023-08-24T07:30:31;29.50;90.70
58469;DHT22;44257;44.804;10.220;2023-08-24T07:32:57;29.60;90.80
58469;DHT22;44257;44.804;10.220;2023-08-24T07:35:23;29.50;90.90
58469;DHT22;44257;44.804;10.220;2023-08-24T07:37:52;29.60;91.10
58469;DHT22;44257;44.804;10.220;2023-08-24T07:40:18;29.70;91.60
58469;DHT22;44257;44.804;10.220;2023-08-24T07:42:51;29.80;91.50
58469;DHT22;44257;44.804;10.220;2023-08-24T07:45:20;30.10;91.10
58469;DHT22;44257;44.804;10.220;2023-08-24T07:47:46;30.30;91.10
58469;DHT22;44257;44.804;10.220;2023-08-24T07:50:12;30.40;89.70
58469;DHT22;44257;44.804;10.220;2023-08-24T07:52:38;30.30;90.00
58469;DHT22;44257;44.804;10.220;2023-08-24T07:55:05;30.30;90.50
58469;DHT22;44257;44.804;10.220;2023-08-24T07:57:36;30.50;90.40
58469;DHT22;44257;44.804;10.220;2023-08-24T08:00:06;30.80;89.00
58469;DHT22;44257;44.804;10.220;2023-08-24T08:02:40;30.90;88.10
58469;DHT22;44257;44.804;10.220;2023-08-24T08:05:06;30.90;87.40
58469;DHT22;44257;44.804;10.220;2023-08-24T08:07:38;31.00;87.50
58469;DHT22;44257;44.804;10.220;2023-08-24T08:10:04;31.00;87.30
58469;DHT22;44257;44.804;10.220;2023-08-24T08:12:30;31.00;87.30
58469;DHT22;44257;44.804;10.220;2023-08-24T08:14:57;31.20;88.30
58469;DHT22;44257;44.804;10.220;2023-08-24T08:17:23;31.40;90.00
58469;DHT22;44257;44.804;10.220;2023-08-24T08:19:53;31.70;86.30
58469;DHT22;44257;44.804;10.220;2023-08-24T08:22:19;31.90;84.20
58469;DHT22;44257;44.804;10.220;2023-08-24T08:24:45;31.90;82.90
58469;DHT22;44257;44.804;10.220;2023-08-24T08:27:11;31.90;83.60
58469;DHT22;44257;44.804;10.220;2023-08-24T08:29:37;32.10;85.90
58469;DHT22;44257;44.804;10.220;2023-08-24T08:32:03;32.40;85.10
58469;DHT22;44257;44.804;10.220;2023-08-24T08:34:31;32.60;84.40
58469;DHT22;44257;44.804;10.220;2023-08-24T08:36:57;32.70;81.60
58469;DHT22;44257;44.804;10.220;2023-08-24T08:39:23;32.80;82.30
58469;DHT22;44257;44.804;10.220;2023-08-24T08:41:49;32.80;82.70
58469;DHT22;44257;44.804;10.220;2023-08-24T08:44:15;33.00;81.00
58469;DHT22;44257;44.804;10.220;2023-08-24T08:46:42;33.10;82.00
58469;DHT22;44257;44.804;10.220;2023-08-24T08:49:09;33.40;83.80
58469;DHT22;44257;44.804;10.220;2023-08-24T08:51:36;33.50;81.00
58469;DHT22;44257;44.804;10.220;2023-08-24T08:54:03;33.60;79.10
58469;DHT22;44257;44.804;10.220;2023-08-24T08:56:32;33.70;80.10
58469;DHT22;44257;44.804;10.220;2023-08-24T08:58:59;33.90;79.80
58469;DHT22;44257;44.804;10.220;2023-08-24T09:01:27;34.00;77.90
58469;DHT22;44257;44.804;10.220;2023-08-24T09:03:53;34.10;78.80
58469;DHT22;44257;44.804;10.220;2023-08-24T09:06:20;34.20;80.50
58469;DHT22;44257;44.804;10.220;2023-08-24T09:08:48;34.50;79.80
58469;DHT22;44257;44.804;10.220;2023-08-24T09:11:15;34.60;77.60
58469;DHT22;44257;44.804;10.220;2023-08-24T09:13:41;34.80;78.70
58469;DHT22;44257;44.804;10.220;2023-08-24T09:16:07;34.90;80.10
58469;DHT22;44257;44.804;10.220;2023-08-24T09:18:38;35.00;78.10
58469;DHT22;44257;44.804;10.220;2023-08-24T09:21:10;35.20;79.40
58469;DHT22;44257;44.804;10.220;2023-08-24T09:23:38;35.30;74.30
58469;DHT22;44257;44.804;10.220;2023-08-24T09:26:08;35.30;73.60
58469;DHT22;44257;44.804;10.220;2023-08-24T09:28:34;35.30;75.50
58469;DHT22;44257;44.804;10.220;2023-08-24T09:31:01;35.40;77.30
58469;DHT22;44257;44.804;10.220;2023-08-24T09:33:29;35.30;72.80
58469;DHT22;44257;44.804;10.220;2023-08-24T09:35:55;35.10;72.60
58469;DHT22;44257;44.804;10.220;2023-08-24T09:38:28;35.00;73.50
58469;DHT22;44257;44.804;10.220;2023-08-24T09:40:55;35.20;78.00
58469;DHT22;44257;44.804;10.220;2023-08-24T09:43:22;35.30;75.70
58469;DHT22;44257;44.804;10.220;2023-08-24T09:45:55;35.50;76.00
58469;DHT22;44257;44.804;10.220;2023-08-24T09:48:23;35.70;74.60
58469;DHT22;44257;44.804;10.220;2023-08-24T09:50:51;36.00;74.40
58469;DHT22;44257;44.804;10.220;2023-08-24T09:53:22;36.20;71.60
58469;DHT22;44257;44.804;10.220;2023-08-24T09:55:55;36.30;72.80
58469;DHT22;44257;44.804;10.220;2023-08-24T09:58:24;36.50;71.20
58469;DHT22;44257;44.804;10.220;2023-08-24T10:00:51;36.50;70.20
58469;DHT22;44257;44.804;10.220;2023-08-24T10:03:19;36.50;71.50
58469;DHT22;44257;44.804;10.220;2023-08-24T10:05:56;36.60;70.50
58469;DHT22;44257;44.804;10.220;2023-08-24T10:08:36;36.60;68.90
58469;DHT22;44257;44.804;10.220;2023-08-24T10:11:03;36.60;69.40
58469;DHT22;44257;44.804;10.220;2023-08-24T10:13:47;36.70;71.20
58469;DHT22;44257;44.804;10.220;2023-08-24T10:16:16;36.80;72.50
58469;DHT22;44257;44.804;10.220;2023-08-24T10:18:42;36.90;70.70
58469;DHT22;44257;44.804;10.220;2023-08-24T10:21:08;37.10;69.40
58469;DHT22;44257;44.804;10.220;2023-08-24T10:23:34;37.10;66.80
58469;DHT22;44257;44.804;10.220;2023-08-24T10:26:06;37.10;68.90
58469;DHT22;44257;44.804;10.220;2023-08-24T10:28:33;37.30;67.50
58469;DHT22;44257;44.804;10.220;2023-08-24T10:30:59;37.30;64.30
58469;DHT22;44257;44.804;10.220;2023-08-24T10:33:27;37.20;65.50
58469;DHT22;44257;44.804;10.220;2023-08-24T10:35:54;37.20;65.50
58469;DHT22;44257;44.804;10.220;2023-08-24T10:38:28;37.20;64.70
58469;DHT22;44257;44.804;10.220;2023-08-24T10:40:55;37.20;63.70
58469;DHT22;44257;44.804;10.220;2023-08-24T10:43:26;37.30;61.00
58469;DHT22;44257;44.804;10.220;2023-08-24T10:46:01;37.30;62.30
58469;DHT22;44257;44.804;10.220;2023-08-24T10:48:31;37.40;60.80
58469;DHT22;44257;44.804;10.220;2023-08-24T10:53:47;37.50;61.30
58469;DHT22;44257;44.804;10.220;2023-08-24T10:56:15;37.60;61.30
58469;DHT22;44257;44.804;10.220;2023-08-24T10:58:42;37.70;61.40
58469;DHT22;44257;44.804;10.220;2023-08-24T11:01:18;37.80;62.80
58469;DHT22;44257;44.804;10.220;2023-08-24T11:03:52;37.90;61.00
58469;DHT22;44257;44.804;10.220;2023-08-24T11:06:24;38.00;59.00
58469;DHT22;44257;44.804;10.220;2023-08-24T11:09:09;38.10;58.40
58469;DHT22;44257;44.804;10.220;2023-08-24T11:11:40;38.10;57.90
58469;DHT22;44257;44.804;10.220;2023-08-24T11:14:16;38.20;59.30
58469;DHT22;44257;44.804;10.220;2023-08-24T11:16:45;38.30;57.60
58469;DHT22;44257;44.804;10.220;2023-08-24T11:19:12;38.20;57.90
58469;DHT22;44257;44.804;10.220;2023-08-24T11:21:39;38.30;57.50
58469;DHT22;44257;44.804;10.220;2023-08-24T11:24:06;38.40;56.90
58469;DHT22;44257;44.804;10.220;2023-08-24T11:26:32;38.50;58.40
58469;DHT22;44257;44.804;10.220;2023-08-24T11:28:58;38.60;55.60
58469;DHT22;44257;44.804;10.220;2023-08-24T11:31:24;38.60;59.10
58469;DHT22;44257;44.804;10.220;2023-08-24T11:33:54;38.70;59.40
58469;DHT22;44257;44.804;10.220;2023-08-24T11:36:23;38.80;57.30
58469;DHT22;44257;44.804;10.220;2023-08-24T11:38:55;38.90;57.80
58469;DHT22;44257;44.804;10.220;2023-08-24T11:41:21;39.00;55.70
58469;DHT22;44257;44.804;10.220;2023-08-24T11:43:49;39.00;56.70
58469;DHT22;44257;44.804;10.220;2023-08-24T11:46:17;39.10;53.90
58469;DHT22;44257;44.804;10.220;2023-08-24T11:48:44;38.90;54.50
58469;DHT22;44257;44.804;10.220;2023-08-24T11:51:12;38.90;55.00
58469;DHT22;44257;44.804;10.220;2023-08-24T11:53:45;38.80;51.90
58469;DHT22;44257;44.804;10.220;2023-08-24T11:56:14;38.70;53.40
58469;DHT22;44257;44.804;10.220;2023-08-24T11:58:43;38.70;54.10
58469;DHT22;44257;44.804;10.220;2023-08-24T12:01:10;38.80;56.10
58469;DHT22;44257;44.804;10.220;2023-08-24T12:03:39;39.00;53.30
58469;DHT22;44257;44.804;10.220;2023-08-24T12:06:14;39.10;53.10
58469;DHT22;44257;44.804;10.220;2023-08-24T12:08:41;39.20;52.30
58469;DHT22;44257;44.804;10.220;2023-08-24T12:11:18;39.20;51.60
58469;DHT22;44257;44.804;10.220;2023-08-24T12:13:49;39.30;53.90
58469;DHT22;44257;44.804;10.220;2023-08-24T12:16:22;39.60;52.70
58469;DHT22;44257;44.804;10.220;2023-08-24T12:18:57;39.80;50.90
58469;DHT22;44257;44.804;10.220;2023-08-24T12:21:25;39.90;50.70
58469;DHT22;44257;44.804;10.220;2023-08-24T12:23:58;39.90;49.50
58469;DHT22;44257;44.804;10.220;2023-08-24T12:26:25;39.90;49.50
58469;DHT22;44257;44.804;10.220;2023-08-24T12:28:51;40.10;51.60
58469;DHT22;44257;44.804;10.220;2023-08-24T12:31:20;40.10;49.60
58469;DHT22;44257;44.804;10.220;2023-08-24T12:33:59;40.20;47.50
58469;DHT22;44257;44.804;10.220;2023-08-24T12:36:25;40.00;47.60
58469;DHT22;44257;44.804;10.220;2023-08-24T12:38:51;40.10;50.10
58469;DHT22;44257;44.804;10.220;2023-08-24T12:41:17;40.10;49.60
58469;DHT22;44257;44.804;10.220;2023-08-24T12:43:43;40.20;48.20
58469;DHT22;44257;44.804;10.220;2023-08-24T12:46:09;40.20;50.20
58469;DHT22;44257;44.804;10.220;2023-08-24T12:48:35;40.30;49.60
58469;DHT22;44257;44.804;10.220;2023-08-24T12:51:01;40.30;45.80
58469;DHT22;44257;44.804;10.220;2023-08-24T12:53:27;40.30;49.20
58469;DHT22;44257;44.804;10.220;2023-08-24T12:55:53;40.30;49.50
58469;DHT22;44257;44.804;10.220;2023-08-24T12:58:19;40.50;48.80
58469;DHT22;44257;44.804;10.220;2023-08-24T13:00:45;40.40;47.00
58469;DHT22;44257;44.804;10.220;2023-08-24T13:03:12;40.40;45.10
58469;DHT22;44257;44.804;10.220;2023-08-24T13:05:38;40.40;47.90
58469;DHT22;44257;44.804;10.220;2023-08-24T13:08:04;40.40;47.40
58469;DHT22;44257;44.804;10.220;2023-08-24T13:10:30;40.40;45.60
58469;DHT22;44257;44.804;10.220;2023-08-24T13:12:56;40.40;46.50
58469;DHT22;44257;44.804;10.220;2023-08-24T13:15:22;40.50;46.40
58469;DHT22;44257;44.804;10.220;2023-08-24T13:17:48;40.60;46.70
58469;DHT22;44257;44.804;10.220;2023-08-24T13:20:14;40.80;46.80
58469;DHT22;44257;44.804;10.220;2023-08-24T13:22:40;40.90;46.70
58469;DHT22;44257;44.804;10.220;2023-08-24T13:25:06;41.00;48.30
58469;DHT22;44257;44.804;10.220;2023-08-24T13:27:32;41.10;46.50
58469;DHT22;44257;44.804;10.220;2023-08-24T13:30:02;41.10;47.90
58469;DHT22;44257;44.804;10.220;2023-08-24T13:32:28;41.10;44.60
58469;DHT22;44257;44.804;10.220;2023-08-24T13:34:54;41.10;47.20
58469;DHT22;44257;44.804;10.220;2023-08-24T13:37:22;41.10;46.40
58469;DHT22;44257;44.804;10.220;2023-08-24T13:39:49;41.10;44.70
58469;DHT22;44257;44.804;10.220;2023-08-24T13:42:14;41.10;45.50
58469;DHT22;44257;44.804;10.220;2023-08-24T13:44:40;41.20;46.10
58469;DHT22;44257;44.804;10.220;2023-08-24T13:47:06;41.20;45.80
58469;DHT22;44257;44.804;10.220;2023-08-24T13:49:32;41.20;44.50
58469;DHT22;44257;44.804;10.220;2023-08-24T13:51:58;41.20;44.70
58469;DHT22;44257;44.804;10.220;2023-08-24T13:54:24;41.30;44.90
58469;DHT22;44257;44.804;10.220;2023-08-24T13:56:51;41.40;47.00
58469;DHT22;44257;44.804;10.220;2023-08-24T13:59:20;41.50;44.90
58469;DHT22;44257;44.804;10.220;2023-08-24T14:01:46;41.40;43.90
58469;DHT22;44257;44.804;10.220;2023-08-24T14:04:12;41.30;43.50
58469;DHT22;44257;44.804;10.220;2023-08-24T14:06:38;41.30;45.00
58469;DHT22;44257;44.804;10.220;2023-08-24T14:09:04;41.40;44.00
58469;DHT22;44257;44.804;10.220;2023-08-24T14:11:30;41.40;44.80
58469;DHT22;44257;44.804;10.220;2023-08-24T14:13:57;41.40;46.20
58469;DHT22;44257;44.804;10.220;2023-08-24T14:16:23;41.50;44.30
58469;DHT22;44257;44.804;10.220;2023-08-24T14:18:50;41.60;46.60
58469;DHT22;44257;44.804;10.220;2023-08-24T14:21:17;41.60;44.60
58469;DHT22;44257;44.804;10.220;2023-08-24T14:23:44;41.60;45.00
58469;DHT22;44257;44.804;10.220;2023-08-24T14:26:10;41.60;44.30
58469;DHT22;44257;44.804;10.220;2023-08-24T14:31:27;41.60;43.20
58469;DHT22;44257;44.804;10.220;2023-08-24T14:33:54;41.70;45.30
58469;DHT22;44257;44.804;10.220;2023-08-24T14:36:20;41.60;44.20
58469;DHT22;44257;44.804;10.220;2023-08-24T14:38:49;41.60;44.40
58469;DHT22;44257;44.804;10.220;2023-08-24T14:41:15;41.50;45.20
58469;DHT22;44257;44.804;10.220;2023-08-24T14:43:42;41.50;45.50
58469;DHT22;44257;44.804;10.220;2023-08-24T14:46:08;41.50;45.80
58469;DHT22;44257;44.804;10.220;2023-08-24T14:48:34;41.50;45.80
58469;DHT22;44257;44.804;10.220;2023-08-24T14:51:01;41.50;44.90
58469;DHT22;44257;44.804;10.220;2023-08-24T14:53:27;41.50;45.90
58469;DHT22;44257;44.804;10.220;2023-08-24T14:55:55;41.60;45.30
58469;DHT22;44257;44.804;10.220;2023-08-24T14:58:22;41.50;45.00
58469;DHT22;44257;44.804;10.220;2023-08-24T15:00:53;41.50;44.90
58469;DHT22;44257;44.804;10.220;2023-08-24T15:03:19;41.50;45.60
58469;DHT22;44257;44.804;10.220;2023-08-24T15:05:55;41.60;45.20
58469;DHT22;44257;44.804;10.220;2023-08-24T15:08:22;41.60;44.00
58469;DHT22;44257;44.804;10.220;2023-08-24T15:10:49;41.60;43.70
58469;DHT22;44257;44.804;10.220;2023-08-24T15:13:15;41.50;43.50
58469;DHT22;44257;44.804;10.220;2023-08-24T15:15:41;41.40;42.00
58469;DHT22;44257;44.804;10.220;2023-08-24T15:18:07;41.20;43.40
58469;DHT22;44257;44.804;10.220;2023-08-24T15:20:33;41.10;43.80
58469;DHT22;44257;44.804;10.220;2023-08-24T15:22:59;41.00;44.40